sensor_id;sensor_type;location;lat;lon;timestamp;temperature;humidity
77865;DHT22;67061;48.524;9.040;2023-04-25T00:02:32;6.40;99.90
77865;DHT22;67061;48.524;9.040;2023-04-25T00:05:20;6.40;99.90
77865;DHT22;67061;48.524;9.040;2023-04-25T00:08:08;6.50;99.90
77865;DHT22;67061;48.524;9.040;2023-04-25T00:10:56;6.60;99.90
77865;DHT22;67061;48.524;9.040;2023-04-25T00:13:43;6.50;99.70
77865;DHT22;67061;48.524;9.040;2023-04-25T00:16:33;6.50;99.50
77865;DHT22;67061;48.524;9.040;2023-04-25T00:19:21;6.50;99.60
77865;DHT22;67061;48.524;9.040;2023-04-25T00:22:08;6.50;98.40
77865;DHT22;67061;48.524;9.040;2023-04-25T00:24:55;6.50;97.70
77865;DHT22;67061;48.524;9.040;2023-04-25T00:27:45;6.50;97.90
77865;DHT22;67061;48.524;9.040;2023-04-25T00:30:33;6.60;98.30
77865;DHT22;67061;48.524;9.040;2023-04-25T00:33:21;6.60;97.60
77865;DHT22;67061;48.524;9.040;2023-04-25T00:36:09;6.50;97.90
77865;DHT22;67061;48.524;9.040;2023-04-25T00:38:57;6.60;96.70
77865;DHT22;67061;48.524;9.040;2023-04-25T00:41:45;6.60;95.70
77865;DHT22;67061;48.524;9.040;2023-04-25T00:44:32;6.60;96.20
77865;DHT22;67061;48.524;9.040;2023-04-25T00:47:20;6.70;96.70
77865;DHT22;67061;48.524;9.040;2023-04-25T00:50:10;6.70;97.10
77865;DHT22;67061;48.524;9.040;2023-04-25T00:52:58;6.60;97.20
77865;DHT22;67061;48.524;9.040;2023-04-25T00:55:45;6.60;96.50
77865;DHT22;67061;48.524;9.040;2023-04-25T00:58:32;6.60;96.50
77865;DHT22;67061;48.524;9.040;2023-04-25T01:01:19;6.60;96.90
77865;DHT22;67061;48.524;9.040;2023-04-25T01:04:07;6.70;98.30
77865;DHT22;67061;48.524;9.040;2023-04-25T01:06:56;6.60;98.20
77865;DHT22;67061;48.524;9.040;2023-04-25T01:09:43;6.60;98.30
77865;DHT22;67061;48.524;9.040;2023-04-25T01:12:30;6.60;98.30
77865;DHT22;67061;48.524;9.040;2023-04-25T01:15:18;6.50;98.80
77865;DHT22;67061;48.524;9.040;2023-04-25T01:18:06;6.50;98.50
77865;DHT22;67061;48.524;9.040;2023-04-25T01:20:53;6.50;98.70
77865;DHT22;67061;48.524;9.040;2023-04-25T01:23:42;6.50;98.80
77865;DHT22;67061;48.524;9.040;2023-04-25T01:26:30;6.40;99.40
77865;DHT22;67061;48.524;9.040;2023-04-25T01:29:18;6.40;99.10
77865;DHT22;67061;48.524;9.040;2023-04-25T01:32:05;6.30;98.80
77865;DHT22;67061;48.524;9.040;2023-04-25T01:34:53;6.30;99.10
77865;DHT22;67061;48.524;9.040;2023-04-25T01:37:41;6.30;99.30
77865;DHT22;67061;48.524;9.040;2023-04-25T01:40:30;6.40;99.60
77865;DHT22;67061;48.524;9.040;2023-04-25T01:43:18;6.40;99.90
77865;DHT22;67061;48.524;9.040;2023-04-25T01:46:06;6.30;99.90
77865;DHT22;67061;48.524;9.040;2023-04-25T01:48:53;6.30;99.90
77865;DHT22;67061;48.524;9.040;2023-04-25T01:51:40;6.30;99.90
77865;DHT22;67061;48.524;9.040;2023-04-25T01:54:28;6.30;99.90
77865;DHT22;67061;48.524;9.040;2023-04-25T01:57:16;6.30;99.90
77865;DHT22;67061;48.524;9.040;2023-04-25T02:00:05;6.30;99.90
77865;DHT22;67061;48.524;9.040;2023-04-25T02:02:57;6.30;99.90
77865;DHT22;67061;48.524;9.040;2023-04-25T02:05:44;6.20;99.90
77865;DHT22;67061;48.524;9.040;2023-04-25T02:08:32;6.20;99.90
77865;DHT22;67061;48.524;9.040;2023-04-25T02:11:19;6.20;99.90
77865;DHT22;67061;48.524;9.040;2023-04-25T02:14:07;6.20;99.90
77865;DHT22;67061;48.524;9.040;2023-04-25T02:16:54;6.10;99.90
77865;DHT22;67061;48.524;9.040;2023-04-25T02:19:43;6.10;99.90
77865;DHT22;67061;48.524;9.040;2023-04-25T02:22:30;6.00;99.90
77865;DHT22;67061;48.524;9.040;2023-04-25T02:25:18;6.00;99.90
77865;DHT22;67061;48.524;9.040;2023-04-25T02:28:05;5.90;99.90
77865;DHT22;67061;48.524;9.040;2023-04-25T02:30:54;5.90;99.90
77865;DHT22;67061;48.524;9.040;2023-04-25T02:33:41;5.80;99.90
77865;DHT22;67061;48.524;9.040;2023-04-25T02:36:28;5.80;99.90
77865;DHT22;67061;48.524;9.040;2023-04-25T02:39:18;5.70;99.90
77865;DHT22;67061;48.524;9.040;2023-04-25T02:42:07;5.70;99.90
77865;DHT22;67061;48.524;9.040;2023-04-25T02:44:55;5.70;99.90
77865;DHT22;67061;48.524;9.040;2023-04-25T02:47:43;5.70;99.90
77865;DHT22;67061;48.524;9.040;2023-04-25T02:50:30;5.70;99.90
77865;DHT22;67061;48.524;9.040;2023-04-25T02:53:18;5.80;99.90
77865;DHT22;67061;48.524;9.040;2023-04-25T02:56:05;5.70;99.90
77865;DHT22;67061;48.524;9.040;2023-04-25T02:58:52;5.70;99.90
77865;DHT22;67061;48.524;9.040;2023-04-25T03:01:40;5.70;99.90
77865;DHT22;67061;48.524;9.040;2023-04-25T03:04:28;5.60;99.90
77865;DHT22;67061;48.524;9.040;2023-04-25T03:07:15;5.60;99.90
77865;DHT22;67061;48.524;9.040;2023-04-25T03:10:03;5.60;99.90
77865;DHT22;67061;48.524;9.040;2023-04-25T03:12:51;5.60;99.90
77865;DHT22;67061;48.524;9.040;2023-04-25T03:15:38;5.60;99.90
77865;DHT22;67061;48.524;9.040;2023-04-25T03:18:25;5.60;99.90
77865;DHT22;67061;48.524;9.040;2023-04-25T03:21:14;5.60;99.90
77865;DHT22;67061;48.524;9.040;2023-04-25T03:24:03;5.60;99.90
77865;DHT22;67061;48.524;9.040;2023-04-25T03:26:50;5.70;99.90
77865;DHT22;67061;48.524;9.040;2023-04-25T03:29:37;5.70;99.90
77865;DHT22;67061;48.524;9.040;2023-04-25T03:32:24;5.70;99.90
77865;DHT22;67061;48.524;9.040;2023-04-25T03:35:12;5.70;99.90
77865;DHT22;67061;48.524;9.040;2023-04-25T03:38:00;5.70;99.90
77865;DHT22;67061;48.524;9.040;2023-04-25T03:40:47;5.70;99.90
77865;DHT22;67061;48.524;9.040;2023-04-25T03:43:34;5.70;99.90
77865;DHT22;67061;48.524;9.040;2023-04-25T03:46:22;5.70;99.90
77865;DHT22;67061;48.524;9.040;2023-04-25T03:49:09;5.70;99.90
77865;DHT22;67061;48.524;9.040;2023-04-25T03:51:56;5.60;99.90
77865;DHT22;67061;48.524;9.040;2023-04-25T03:54:45;5.50;99.90
77865;DHT22;67061;48.524;9.040;2023-04-25T03:57:32;5.50;99.90
77865;DHT22;67061;48.524;9.040;2023-04-25T04:00:19;5.50;99.90
77865;DHT22;67061;48.524;9.040;2023-04-25T04:03:07;5.40;99.90
77865;DHT22;67061;48.524;9.040;2023-04-25T04:05:54;5.40;99.90
77865;DHT22;67061;48.524;9.040;2023-04-25T04:08:41;5.30;99.90
77865;DHT22;67061;48.524;9.040;2023-04-25T04:11:30;5.30;99.90
77865;DHT22;67061;48.524;9.040;2023-04-25T04:14:18;5.10;99.90
77865;DHT22;67061;48.524;9.040;2023-04-25T04:17:05;5.10;99.90
77865;DHT22;67061;48.524;9.040;2023-04-25T04:19:52;5.00;99.90
77865;DHT22;67061;48.524;9.040;2023-04-25T04:22:40;5.00;99.90
77865;DHT22;67061;48.524;9.040;2023-04-25T04:25:27;5.00;99.90
77865;DHT22;67061;48.524;9.040;2023-04-25T04:28:17;5.00;99.90
77865;DHT22;67061;48.524;9.040;2023-04-25T04:31:04;5.10;99.90
77865;DHT22;67061;48.524;9.040;2023-04-25T04:33:51;5.10;99.90
77865;DHT22;67061;48.524;9.040;2023-04-25T04:36:38;5.10;99.90
77865;DHT22;67061;48.524;9.040;2023-04-25T04:39:27;5.00;99.90
77865;DHT22;67061;48.524;9.040;2023-04-25T04:42:14;5.00;99.90
77865;DHT22;67061;48.524;9.040;2023-04-25T04:45:03;5.00;99.90
77865;DHT22;67061;48.524;9.040;2023-04-25T04:47:50;5.00;99.90
77865;DHT22;67061;48.524;9.040;2023-04-25T04:50:38;5.00;99.90
77865;DHT22;67061;48.524;9.040;2023-04-25T04:53:26;5.10;99.90
77865;DHT22;67061;48.524;9.040;2023-04-25T04:56:13;5.10;99.90
77865;DHT22;67061;48.524;9.040;2023-04-25T04:59:00;5.10;99.90
77865;DHT22;67061;48.524;9.040;2023-04-25T05:01:49;5.10;99.90
77865;DHT22;67061;48.524;9.040;2023-04-25T05:04:36;5.20;99.90
77865;DHT22;67061;48.524;9.040;2023-04-25T05:07:23;5.20;99.90
77865;DHT22;67061;48.524;9.040;2023-04-25T05:10:10;5.10;99.90
77865;DHT22;67061;48.524;9.040;2023-04-25T05:12:58;5.10;99.90
77865;DHT22;67061;48.524;9.040;2023-04-25T05:15:45;5.10;99.90
77865;DHT22;67061;48.524;9.040;2023-04-25T05:18:34;5.10;99.90
77865;DHT22;67061;48.524;9.040;2023-04-25T05:21:22;5.20;99.90
77865;DHT22;67061;48.524;9.040;2023-04-25T05:24:09;5.30;99.90
77865;DHT22;67061;48.524;9.040;2023-04-25T05:26:56;5.30;99.90
77865;DHT22;67061;48.524;9.040;2023-04-25T05:29:44;5.50;99.90
77865;DHT22;67061;48.524;9.040;2023-04-25T05:32:31;5.50;99.90
77865;DHT22;67061;48.524;9.040;2023-04-25T05:35:19;5.60;99.90
77865;DHT22;67061;48.524;9.040;2023-04-25T05:38:07;5.70;99.90
77865;DHT22;67061;48.524;9.040;2023-04-25T05:40:54;5.80;99.90
77865;DHT22;67061;48.524;9.040;2023-04-25T05:43:41;5.90;99.90
77865;DHT22;67061;48.524;9.040;2023-04-25T05:46:32;6.00;99.90
77865;DHT22;67061;48.524;9.040;2023-04-25T05:49:20;6.00;99.90
77865;DHT22;67061;48.524;9.040;2023-04-25T05:52:08;6.10;99.90
77865;DHT22;67061;48.524;9.040;2023-04-25T05:54:55;6.20;99.90
77865;DHT22;67061;48.524;9.040;2023-04-25T05:57:43;6.30;99.90
77865;DHT22;67061;48.524;9.040;2023-04-25T06:00:31;6.40;99.90
77865;DHT22;67061;48.524;9.040;2023-04-25T06:03:18;6.50;97.50
77865;DHT22;67061;48.524;9.040;2023-04-25T06:06:06;6.50;97.80
77865;DHT22;67061;48.524;9.040;2023-04-25T06:08:54;6.60;95.70
77865;DHT22;67061;48.524;9.040;2023-04-25T06:11:41;6.60;95.30
77865;DHT22;67061;48.524;9.040;2023-04-25T06:14:28;6.60;95.20
77865;DHT22;67061;48.524;9.040;2023-04-25T06:17:16;6.60;92.50
77865;DHT22;67061;48.524;9.040;2023-04-25T06:20:04;6.60;94.60
77865;DHT22;67061;48.524;9.040;2023-04-25T06:22:52;6.60;95.80
77865;DHT22;67061;48.524;9.040;2023-04-25T06:25:40;6.60;94.10
77865;DHT22;67061;48.524;9.040;2023-04-25T06:28:27;6.60;91.70
77865;DHT22;67061;48.524;9.040;2023-04-25T06:31:14;6.60;94.00
77865;DHT22;67061;48.524;9.040;2023-04-25T06:34:02;6.70;95.10
77865;DHT22;67061;48.524;9.040;2023-04-25T06:36:49;6.70;94.90
77865;DHT22;67061;48.524;9.040;2023-04-25T06:39:36;6.80;93.90
77865;DHT22;67061;48.524;9.040;2023-04-25T06:42:24;6.80;93.60
77865;DHT22;67061;48.524;9.040;2023-04-25T06:45:11;6.80;92.70
77865;DHT22;67061;48.524;9.040;2023-04-25T06:47:59;6.90;91.10
77865;DHT22;67061;48.524;9.040;2023-04-25T06:50:46;6.90;92.50
77865;DHT22;67061;48.524;9.040;2023-04-25T06:53:33;6.90;91.20
77865;DHT22;67061;48.524;9.040;2023-04-25T06:56:20;6.80;91.30
77865;DHT22;67061;48.524;9.040;2023-04-25T06:59:10;6.80;92.70
77865;DHT22;67061;48.524;9.040;2023-04-25T07:01:57;6.80;92.80
77865;DHT22;67061;48.524;9.040;2023-04-25T07:04:44;6.80;92.60
77865;DHT22;67061;48.524;9.040;2023-04-25T07:07:32;6.70;94.60
77865;DHT22;67061;48.524;9.040;2023-04-25T07:10:19;6.70;96.10
77865;DHT22;67061;48.524;9.040;2023-04-25T07:13:07;6.70;97.90
77865;DHT22;67061;48.524;9.040;2023-04-25T07:15:55;6.70;97.90
77865;DHT22;67061;48.524;9.040;2023-04-25T07:18:42;6.60;97.50
77865;DHT22;67061;48.524;9.040;2023-04-25T07:21:30;6.50;98.80
77865;DHT22;67061;48.524;9.040;2023-04-25T07:24:18;6.50;99.80
77865;DHT22;67061;48.524;9.040;2023-04-25T07:27:05;6.50;99.90
77865;DHT22;67061;48.524;9.040;2023-04-25T07:29:53;6.40;98.70
77865;DHT22;67061;48.524;9.040;2023-04-25T07:32:41;6.30;99.40
77865;DHT22;67061;48.524;9.040;2023-04-25T07:35:28;6.30;99.90
77865;DHT22;67061;48.524;9.040;2023-04-25T07:38:16;6.30;99.90
77865;DHT22;67061;48.524;9.040;2023-04-25T07:41:03;6.40;98.80
77865;DHT22;67061;48.524;9.040;2023-04-25T07:43:50;6.30;98.20
77865;DHT22;67061;48.524;9.040;2023-04-25T07:46:37;6.30;99.70
77865;DHT22;67061;48.524;9.040;2023-04-25T07:49:26;6.30;99.90
77865;DHT22;67061;48.524;9.040;2023-04-25T07:52:13;6.40;99.90
77865;DHT22;67061;48.524;9.040;2023-04-25T07:55:00;6.40;99.90
77865;DHT22;67061;48.524;9.040;2023-04-25T07:57:46;6.40;99.90
77865;DHT22;67061;48.524;9.040;2023-04-25T08:00:14;6.40;99.90
77865;DHT22;67061;48.524;9.040;2023-04-25T08:02:41;6.40;99.90
77865;DHT22;67061;48.524;9.040;2023-04-25T08:05:10;6.50;99.90
77865;DHT22;67061;48.524;9.040;2023-04-25T08:07:39;6.50;99.90
77865;DHT22;67061;48.524;9.040;2023-04-25T08:10:08;6.40;99.90
77865;DHT22;67061;48.524;9.040;2023-04-25T08:12:35;6.40;99.90
77865;DHT22;67061;48.524;9.040;2023-04-25T08:15:02;6.40;99.90
77865;DHT22;67061;48.524;9.040;2023-04-25T08:17:29;6.40;99.90
77865;DHT22;67061;48.524;9.040;2023-04-25T08:19:56;6.30;99.90
77865;DHT22;67061;48.524;9.040;2023-04-25T08:22:24;6.30;99.90
77865;DHT22;67061;48.524;9.040;2023-04-25T08:24:51;6.30;99.90
77865;DHT22;67061;48.524;9.040;2023-04-25T08:27:19;6.20;99.90
77865;DHT22;67061;48.524;9.040;2023-04-25T08:29:46;6.20;99.90
77865;DHT22;67061;48.524;9.040;2023-04-25T08:32:13;6.10;99.90
77865;DHT22;67061;48.524;9.040;2023-04-25T08:34:40;6.00;99.90
77865;DHT22;67061;48.524;9.040;2023-04-25T08:37:08;6.00;99.90
77865;DHT22;67061;48.524;9.040;2023-04-25T08:39:37;5.90;99.90
77865;DHT22;67061;48.524;9.040;2023-04-25T08:42:06;6.00;99.90
77865;DHT22;67061;48.524;9.040;2023-04-25T08:44:34;6.00;99.90
77865;DHT22;67061;48.524;9.040;2023-04-25T08:47:02;6.00;99.90
77865;DHT22;67061;48.524;9.040;2023-04-25T08:49:32;6.00;99.90
77865;DHT22;67061;48.524;9.040;2023-04-25T08:52:00;6.10;99.90
77865;DHT22;67061;48.524;9.040;2023-04-25T08:54:28;6.10;99.90
77865;DHT22;67061;48.524;9.040;2023-04-25T08:57:00;6.10;99.90
77865;DHT22;67061;48.524;9.040;2023-04-25T08:59:29;6.00;99.90
77865;DHT22;67061;48.524;9.040;2023-04-25T09:01:57;6.00;99.90
77865;DHT22;67061;48.524;9.040;2023-04-25T09:04:24;5.90;99.90
77865;DHT22;67061;48.524;9.040;2023-04-25T09:06:51;5.90;99.90
77865;DHT22;67061;48.524;9.040;2023-04-25T09:09:18;5.90;99.90
77865;DHT22;67061;48.524;9.040;2023-04-25T09:11:45;5.70;99.90
77865;DHT22;67061;48.524;9.040;2023-04-25T09:14:15;5.60;99.90
77865;DHT22;67061;48.524;9.040;2023-04-25T09:17:02;5.50;99.90
77865;DHT22;67061;48.524;9.040;2023-04-25T09:19:31;5.50;99.90
77865;DHT22;67061;48.524;9.040;2023-04-25T09:22:00;5.40;99.90
77865;DHT22;67061;48.524;9.040;2023-04-25T09:24:36;5.40;99.90
77865;DHT22;67061;48.524;9.040;2023-04-25T09:27:03;5.50;99.90
77865;DHT22;67061;48.524;9.040;2023-04-25T09:29:32;5.50;99.90
77865;DHT22;67061;48.524;9.040;2023-04-25T09:32:17;5.50;99.90
77865;DHT22;67061;48.524;9.040;2023-04-25T09:34:46;5.30;99.90
77865;DHT22;67061;48.524;9.040;2023-04-25T09:37:19;5.30;99.90
77865;DHT22;67061;48.524;9.040;2023-04-25T09:39:47;5.20;99.90
77865;DHT22;67061;48.524;9.040;2023-04-25T09:42:15;5.00;99.90
77865;DHT22;67061;48.524;9.040;2023-04-25T09:44:45;4.90;99.90
77865;DHT22;67061;48.524;9.040;2023-04-25T09:47:14;4.70;99.90
77865;DHT22;67061;48.524;9.040;2023-04-25T09:49:42;4.70;99.90
77865;DHT22;67061;48.524;9.040;2023-04-25T09:52:13;4.60;99.90
77865;DHT22;67061;48.524;9.040;2023-04-25T09:54:40;4.60;99.90
77865;DHT22;67061;48.524;9.040;2023-04-25T09:57:10;4.50;99.90
77865;DHT22;67061;48.524;9.040;2023-04-25T09:59:39;4.60;99.90
77865;DHT22;67061;48.524;9.040;2023-04-25T10:02:09;4.50;99.90
77865;DHT22;67061;48.524;9.040;2023-04-25T10:04:38;4.60;99.90
77865;DHT22;67061;48.524;9.040;2023-04-25T10:07:06;4.50;99.90
77865;DHT22;67061;48.524;9.040;2023-04-25T10:09:36;4.40;99.90
77865;DHT22;67061;48.524;9.040;2023-04-25T10:12:05;4.40;99.90
77865;DHT22;67061;48.524;9.040;2023-04-25T10:14:33;4.30;99.90
77865;DHT22;67061;48.524;9.040;2023-04-25T10:17:00;4.30;99.90
77865;DHT22;67061;48.524;9.040;2023-04-25T10:19:29;4.30;99.90
77865;DHT22;67061;48.524;9.040;2023-04-25T10:22:04;4.20;99.90
77865;DHT22;67061;48.524;9.040;2023-04-25T10:24:32;4.20;99.90
77865;DHT22;67061;48.524;9.040;2023-04-25T10:27:00;4.30;99.90
77865;DHT22;67061;48.524;9.040;2023-04-25T10:29:28;4.30;99.90
77865;DHT22;67061;48.524;9.040;2023-04-25T10:31:55;4.40;99.90
77865;DHT22;67061;48.524;9.040;2023-04-25T10:34:24;4.50;99.90
77865;DHT22;67061;48.524;9.040;2023-04-25T10:37:05;4.50;99.90
77865;DHT22;67061;48.524;9.040;2023-04-25T10:39:34;4.50;99.90
77865;DHT22;67061;48.524;9.040;2023-04-25T10:42:02;4.50;99.90
77865;DHT22;67061;48.524;9.040;2023-04-25T10:44:30;4.40;99.90
77865;DHT22;67061;48.524;9.040;2023-04-25T10:46:58;4.40;99.90
77865;DHT22;67061;48.524;9.040;2023-04-25T10:49:33;4.50;99.90
77865;DHT22;67061;48.524;9.040;2023-04-25T10:52:19;4.50;99.90
77865;DHT22;67061;48.524;9.040;2023-04-25T10:54:52;4.70;99.90
77865;DHT22;67061;48.524;9.040;2023-04-25T10:57:36;4.90;99.90
77865;DHT22;67061;48.524;9.040;2023-04-25T11:00:09;4.70;99.90
77865;DHT22;67061;48.524;9.040;2023-04-25T11:02:38;4.70;99.90
77865;DHT22;67061;48.524;9.040;2023-04-25T11:05:07;4.70;99.90
77865;DHT22;67061;48.524;9.040;2023-04-25T11:07:39;4.50;99.90
77865;DHT22;67061;48.524;9.040;2023-04-25T11:10:09;4.50;99.90
77865;DHT22;67061;48.524;9.040;2023-04-25T11:12:36;4.50;99.90
77865;DHT22;67061;48.524;9.040;2023-04-25T11:15:05;4.50;99.90
77865;DHT22;67061;48.524;9.040;2023-04-25T11:17:32;4.60;99.90
77865;DHT22;67061;48.524;9.040;2023-04-25T11:19:59;4.70;99.90
77865;DHT22;67061;48.524;9.040;2023-04-25T11:22:27;4.50;99.90
77865;DHT22;67061;48.524;9.040;2023-04-25T11:24:55;4.40;99.90
77865;DHT22;67061;48.524;9.040;2023-04-25T11:27:22;4.50;99.90
77865;DHT22;67061;48.524;9.040;2023-04-25T11:29:50;4.50;99.90
77865;DHT22;67061;48.524;9.040;2023-04-25T11:32:17;4.50;99.90
77865;DHT22;67061;48.524;9.040;2023-04-25T11:34:46;4.70;99.90
77865;DHT22;67061;48.524;9.040;2023-04-25T11:37:14;4.70;99.90
77865;DHT22;67061;48.524;9.040;2023-04-25T11:39:44;4.90;99.90
77865;DHT22;67061;48.524;9.040;2023-04-25T11:42:13;5.10;99.90
77865;DHT22;67061;48.524;9.040;2023-04-25T11:44:40;5.20;99.90
77865;DHT22;67061;48.524;9.040;2023-04-25T11:47:07;5.20;99.90
77865;DHT22;67061;48.524;9.040;2023-04-25T11:49:35;5.30;99.90
77865;DHT22;67061;48.524;9.040;2023-04-25T11:52:02;5.40;99.90
77865;DHT22;67061;48.524;9.040;2023-04-25T11:54:29;5.50;99.90
77865;DHT22;67061;48.524;9.040;2023-04-25T11:56:56;5.60;99.90
77865;DHT22;67061;48.524;9.040;2023-04-25T11:59:25;5.70;99.90
77865;DHT22;67061;48.524;9.040;2023-04-25T12:01:53;5.70;99.90
77865;DHT22;67061;48.524;9.040;2023-04-25T12:04:21;5.80;99.90
77865;DHT22;67061;48.524;9.040;2023-04-25T12:06:50;5.90;99.90
77865;DHT22;67061;48.524;9.040;2023-04-25T12:09:18;6.10;99.90
77865;DHT22;67061;48.524;9.040;2023-04-25T12:11:48;6.10;99.90
77865;DHT22;67061;48.524;9.040;2023-04-25T12:14:21;6.10;99.90
77865;DHT22;67061;48.524;9.040;2023-04-25T12:16:54;6.00;99.90
77865;DHT22;67061;48.524;9.040;2023-04-25T12:19:23;5.90;99.90
77865;DHT22;67061;48.524;9.040;2023-04-25T12:21:50;5.80;99.90
77865;DHT22;67061;48.524;9.040;2023-04-25T12:24:21;5.80;99.90
77865;DHT22;67061;48.524;9.040;2023-04-25T12:26:51;5.80;99.90
77865;DHT22;67061;48.524;9.040;2023-04-25T12:29:20;5.80;99.90
77865;DHT22;67061;48.524;9.040;2023-04-25T12:31:47;5.70;99.90
77865;DHT22;67061;48.524;9.040;2023-04-25T12:34:16;5.80;99.90
77865;DHT22;67061;48.524;9.040;2023-04-25T12:36:42;5.90;99.90
77865;DHT22;67061;48.524;9.040;2023-04-25T12:39:15;5.80;99.90
77865;DHT22;67061;48.524;9.040;2023-04-25T12:41:42;5.70;99.90
77865;DHT22;67061;48.524;9.040;2023-04-25T12:44:10;5.80;99.90
77865;DHT22;67061;48.524;9.040;2023-04-25T12:46:37;5.90;99.90
77865;DHT22;67061;48.524;9.040;2023-04-25T12:49:04;6.20;99.90
77865;DHT22;67061;48.524;9.040;2023-04-25T12:51:34;6.40;99.90
77865;DHT22;67061;48.524;9.040;2023-04-25T12:54:01;6.60;99.90
77865;DHT22;67061;48.524;9.040;2023-04-25T12:56:29;6.80;99.90
77865;DHT22;67061;48.524;9.040;2023-04-25T12:58:56;7.00;99.90
77865;DHT22;67061;48.524;9.040;2023-04-25T13:01:23;7.00;99.90
77865;DHT22;67061;48.524;9.040;2023-04-25T13:03:50;7.00;99.90
77865;DHT22;67061;48.524;9.040;2023-04-25T13:06:18;7.20;99.90
77865;DHT22;67061;48.524;9.040;2023-04-25T13:08:47;7.20;99.90
77865;DHT22;67061;48.524;9.040;2023-04-25T13:11:14;7.00;99.90
77865;DHT22;67061;48.524;9.040;2023-04-25T13:13:41;7.00;99.90
77865;DHT22;67061;48.524;9.040;2023-04-25T13:16:08;7.00;99.90
77865;DHT22;67061;48.524;9.040;2023-04-25T13:18:35;6.90;99.90
77865;DHT22;67061;48.524;9.040;2023-04-25T13:21:02;6.90;99.90
77865;DHT22;67061;48.524;9.040;2023-04-25T13:23:30;6.90;99.90
77865;DHT22;67061;48.524;9.040;2023-04-25T13:25:58;6.90;99.90
77865;DHT22;67061;48.524;9.040;2023-04-25T13:28:27;6.90;99.90
77865;DHT22;67061;48.524;9.040;2023-04-25T13:30:54;7.00;99.90
77865;DHT22;67061;48.524;9.040;2023-04-25T13:33:21;7.00;99.90
77865;DHT22;67061;48.524;9.040;2023-04-25T13:35:49;7.30;99.90
77865;DHT22;67061;48.524;9.040;2023-04-25T13:38:20;7.40;99.90
77865;DHT22;67061;48.524;9.040;2023-04-25T13:40:47;7.50;99.90
77865;DHT22;67061;48.524;9.040;2023-04-25T13:43:16;7.60;99.90
77865;DHT22;67061;48.524;9.040;2023-04-25T13:45:43;7.80;99.90
77865;DHT22;67061;48.524;9.040;2023-04-25T13:48:10;8.00;99.00
77865;DHT22;67061;48.524;9.040;2023-04-25T13:50:37;8.10;95.80
77865;DHT22;67061;48.524;9.040;2023-04-25T13:53:04;8.10;96.30
77865;DHT22;67061;48.524;9.040;2023-04-25T13:55:31;8.20;95.00
77865;DHT22;67061;48.524;9.040;2023-04-25T13:57:58;8.20;94.80
77865;DHT22;67061;48.524;9.040;2023-04-25T14:00:26;8.20;96.30
77865;DHT22;67061;48.524;9.040;2023-04-25T14:02:53;8.20;95.30
77865;DHT22;67061;48.524;9.040;2023-04-25T14:05:20;8.20;95.00
77865;DHT22;67061;48.524;9.040;2023-04-25T14:07:47;8.30;95.50
77865;DHT22;67061;48.524;9.040;2023-04-25T14:10:14;8.30;89.50
77865;DHT22;67061;48.524;9.040;2023-04-25T14:12:41;8.20;92.60
77865;DHT22;67061;48.524;9.040;2023-04-25T14:15:08;8.30;93.80
77865;DHT22;67061;48.524;9.040;2023-04-25T14:17:37;8.50;94.60
77865;DHT22;67061;48.524;9.040;2023-04-25T14:20:06;8.60;95.00
77865;DHT22;67061;48.524;9.040;2023-04-25T14:22:34;8.60;90.90
77865;DHT22;67061;48.524;9.040;2023-04-25T14:25:01;8.60;93.50
77865;DHT22;67061;48.524;9.040;2023-04-25T14:27:28;8.60;94.70
77865;DHT22;67061;48.524;9.040;2023-04-25T14:29:55;8.60;91.00
77865;DHT22;67061;48.524;9.040;2023-04-25T14:32:22;8.50;89.50
77865;DHT22;67061;48.524;9.040;2023-04-25T14:34:50;8.40;90.50
77865;DHT22;67061;48.524;9.040;2023-04-25T14:37:17;8.40;89.30
77865;DHT22;67061;48.524;9.040;2023-04-25T14:39:44;8.50;91.60
77865;DHT22;67061;48.524;9.040;2023-04-25T14:42:11;8.60;93.80
77865;DHT22;67061;48.524;9.040;2023-04-25T14:44:38;9.00;88.90
77865;DHT22;67061;48.524;9.040;2023-04-25T14:47:05;8.90;86.00
77865;DHT22;67061;48.524;9.040;2023-04-25T14:49:32;8.90;92.00
77865;DHT22;67061;48.524;9.040;2023-04-25T14:52:00;8.80;86.20
77865;DHT22;67061;48.524;9.040;2023-04-25T14:54:27;8.60;88.90
77865;DHT22;67061;48.524;9.040;2023-04-25T14:56:54;8.40;86.90
77865;DHT22;67061;48.524;9.040;2023-04-25T14:59:22;8.30;87.90
77865;DHT22;67061;48.524;9.040;2023-04-25T15:01:49;8.10;88.40
77865;DHT22;67061;48.524;9.040;2023-04-25T15:04:16;8.00;89.40
77865;DHT22;67061;48.524;9.040;2023-04-25T15:06:43;8.00;96.70
77865;DHT22;67061;48.524;9.040;2023-04-25T15:09:12;7.90;95.70
77865;DHT22;67061;48.524;9.040;2023-04-25T15:11:39;8.00;99.90
77865;DHT22;67061;48.524;9.040;2023-04-25T15:14:05;8.10;99.90
77865;DHT22;67061;48.524;9.040;2023-04-25T15:16:32;8.30;99.90
77865;DHT22;67061;48.524;9.040;2023-04-25T15:18:59;8.50;99.00
77865;DHT22;67061;48.524;9.040;2023-04-25T15:21:30;8.60;96.80
77865;DHT22;67061;48.524;9.040;2023-04-25T15:23:57;8.50;93.40
77865;DHT22;67061;48.524;9.040;2023-04-25T15:26:25;8.40;94.00
77865;DHT22;67061;48.524;9.040;2023-04-25T15:28:52;8.30;91.60
77865;DHT22;67061;48.524;9.040;2023-04-25T15:31:19;8.50;91.90
77865;DHT22;67061;48.524;9.040;2023-04-25T15:33:45;8.60;93.70
77865;DHT22;67061;48.524;9.040;2023-04-25T15:36:12;8.60;90.20
77865;DHT22;67061;48.524;9.040;2023-04-25T15:38:41;8.50;92.10
77865;DHT22;67061;48.524;9.040;2023-04-25T15:41:08;8.60;94.40
77865;DHT22;67061;48.524;9.040;2023-04-25T15:43:37;8.80;96.90
77865;DHT22;67061;48.524;9.040;2023-04-25T15:46:04;8.70;91.10
77865;DHT22;67061;48.524;9.040;2023-04-25T15:48:31;8.60;91.80
77865;DHT22;67061;48.524;9.040;2023-04-25T15:50:58;8.80;94.10
77865;DHT22;67061;48.524;9.040;2023-04-25T15:53:25;8.80;89.80
77865;DHT22;67061;48.524;9.040;2023-04-25T15:55:52;8.80;91.80
77865;DHT22;67061;48.524;9.040;2023-04-25T15:58:19;8.90;94.70
77865;DHT22;67061;48.524;9.040;2023-04-25T16:00:48;8.90;91.90
77865;DHT22;67061;48.524;9.040;2023-04-25T16:03:16;8.90;90.60
77865;DHT22;67061;48.524;9.040;2023-04-25T16:05:43;8.90;91.10
77865;DHT22;67061;48.524;9.040;2023-04-25T16:08:10;8.80;89.40
77865;DHT22;67061;48.524;9.040;2023-04-25T16:10:37;8.90;94.00
77865;DHT22;67061;48.524;9.040;2023-04-25T16:13:04;8.80;91.10
77865;DHT22;67061;48.524;9.040;2023-04-25T16:15:31;8.80;89.80
77865;DHT22;67061;48.524;9.040;2023-04-25T16:17:59;8.60;87.50
77865;DHT22;67061;48.524;9.040;2023-04-25T16:20:26;8.70;91.70
77865;DHT22;67061;48.524;9.040;2023-04-25T16:22:53;8.80;89.20
77865;DHT22;67061;48.524;9.040;2023-04-25T16:25:20;8.70;90.80
77865;DHT22;67061;48.524;9.040;2023-04-25T16:27:47;8.90;89.10
77865;DHT22;67061;48.524;9.040;2023-04-25T16:30:14;9.00;91.90
77865;DHT22;67061;48.524;9.040;2023-04-25T16:32:41;9.00;89.60
77865;DHT22;67061;48.524;9.040;2023-04-25T16:35:09;8.90;89.00
77865;DHT22;67061;48.524;9.040;2023-04-25T16:37:36;9.00;90.30
77865;DHT22;67061;48.524;9.040;2023-04-25T16:40:04;9.20;92.00
77865;DHT22;67061;48.524;9.040;2023-04-25T16:42:33;9.20;88.80
77865;DHT22;67061;48.524;9.040;2023-04-25T16:45:00;9.20;89.50
77865;DHT22;67061;48.524;9.040;2023-04-25T16:47:29;9.20;89.70